Time;durP1;ratioP1;P1;durP2;ratioP2;P2;SDS_P1;SDS_P2;PMS_P1;PMS_P2;Temp;Humidity;BMP_temperature;BMP_pressure;BME280_temperature;BME280_humidity;BME280_pressure;Samples;Min_cycle;Max_cycle;Signal;HPM_P1;HPM_P2
2021/06/16 00:01:36;;;;;;;7.40;1.88;;;18.80;70.30;;;;;;5175139;27;20499;-87
2021/06/16 00:04:04;;;;;;;6.57;1.83;;;18.80;70.40;;;;;;5168185;27;20075;-88
2021/06/16 00:06:30;;;;;;;7.13;1.88;;;18.70;70.20;;;;;;5154200;27;20562;-87
2021/06/16 00:08:55;;;;;;;7.25;1.58;;;18.70;70.10;;;;;;5153773;27;20130;-88
2021/06/16 00:11:21;;;;;;;7.50;2.00;;;18.60;70.40;;;;;;5154418;27;20073;-88
2021/06/16 00:13:47;;;;;;;6.55;1.70;;;18.60;70.60;;;;;;5154639;27;20082;-87
2021/06/16 00:16:13;;;;;;;6.57;1.60;;;18.50;70.50;;;;;;5156179;27;20078;-88
2021/06/16 00:18:39;;;;;;;8.45;1.77;;;18.50;70.70;;;;;;5158354;27;20133;-88
2021/06/16 00:21:04;;;;;;;6.25;1.63;;;18.50;70.80;;;;;;5158299;27;20478;-88
2021/06/16 00:23:30;;;;;;;7.22;1.75;;;18.40;70.20;;;;;;5158742;27;20406;-88
2021/06/16 00:25:56;;;;;;;8.23;1.90;;;18.40;70.20;;;;;;5158553;27;20471;-88
2021/06/16 00:28:22;;;;;;;6.55;1.83;;;18.30;70.20;;;;;;5158063;27;20436;-88
2021/06/16 00:30:48;;;;;;;8.55;1.92;;;18.30;70.40;;;;;;5157968;27;20051;-88
2021/06/16 00:33:13;;;;;;;7.50;1.83;;;18.20;70.60;;;;;;5177519;27;20046;-87
2021/06/16 00:35:39;;;;;;;6.20;1.77;;;18.20;70.90;;;;;;5178994;27;20050;-88
2021/06/16 00:38:05;;;;;;;7.43;1.80;;;18.20;71.00;;;;;;5178937;27;20130;-88
2021/06/16 00:40:31;;;;;;;6.80;1.60;;;18.10;70.90;;;;;;5178424;27;20073;-87
2021/06/16 00:42:57;;;;;;;6.30;1.50;;;18.10;70.80;;;;;;5178506;27;20454;-88
2021/06/16 00:45:24;;;;;;;6.63;1.75;;;18.10;71.20;;;;;;5157654;27;20557;-89
2021/06/16 00:47:55;;;;;;;5.82;1.80;;;18.00;71.40;;;;;;5158005;27;20054;-89
2021/06/16 00:50:26;;;;;;;5.97;1.60;;;18.00;71.40;;;;;;5157869;27;20429;-88
2021/06/16 00:52:52;;;;;;;5.28;1.60;;;17.90;71.40;;;;;;5156526;27;20504;-88
2021/06/16 00:55:17;;;;;;;6.53;1.95;;;17.90;71.60;;;;;;5157959;27;20046;-88
2021/06/16 00:57:43;;;;;;;6.53;1.63;;;17.90;71.70;;;;;;5157705;27;20444;-88
2021/06/16 01:00:19;;;;;;;6.15;2.05;;;17.80;71.80;;;;;;5157468;27;20042;-88
2021/06/16 01:03:08;;;;;;;7.82;1.75;;;17.80;71.20;;;;;;5172442;27;20046;-88
2021/06/16 01:05:41;;;;;;;7.07;2.20;;;17.70;70.90;;;;;;5161339;27;20442;-87
2021/06/16 01:08:07;;;;;;;6.30;1.63;;;17.70;71.90;;;;;;5178242;27;20046;-89
2021/06/16 01:10:37;;;;;;;7.93;1.70;;;17.70;72.00;;;;;;5177999;27;20050;-89
2021/06/16 01:13:33;;;;;;;7.50;2.00;;;17.60;72.20;;;;;;5177795;27;20182;-88
2021/06/16 01:16:09;;;;;;;7.50;1.90;;;17.60;71.60;;;;;;5178369;27;20390;-88
2021/06/16 01:18:46;;;;;;;7.80;1.60;;;17.60;72.20;;;;;;5178219;27;20074;-88
2021/06/16 01:21:13;;;;;;;6.93;2.08;;;17.50;72.10;;;;;;5175539;27;20039;-88
2021/06/16 01:23:57;;;;;;;7.15;1.80;;;17.50;72.40;;;;;;5177648;27;20053;-88
2021/06/16 01:26:24;;;;;;;6.65;1.80;;;17.50;71.90;;;;;;5177027;27;20069;-88
2021/06/16 01:28:58;;;;;;;6.93;1.98;;;17.40;72.10;;;;;;5177702;27;20493;-89
2021/06/16 01:31:25;;;;;;;6.03;1.65;;;17.40;72.40;;;;;;5173670;27;20051;-88
2021/06/16 01:33:51;;;;;;;6.32;1.60;;;17.30;72.30;;;;;;5156432;27;20054;-88
2021/06/16 01:36:17;;;;;;;7.05;1.90;;;17.20;72.40;;;;;;5157082;27;20046;-89
2021/06/16 01:38:45;;;;;;;5.85;1.85;;;17.20;72.50;;;;;;5157056;27;20078;-89
2021/06/16 01:41:12;;;;;;;8.25;2.15;;;17.10;72.10;;;;;;5156685;27;20042;-88
2021/06/16 01:43:40;;;;;;;9.02;1.83;;;17.10;72.40;;;;;;5165612;27;20061;-87
2021/06/16 01:46:07;;;;;;;5.82;1.60;;;17.00;72.40;;;;;;5176553;27;20043;-88
2021/06/16 01:48:34;;;;;;;8.43;2.05;;;17.00;72.50;;;;;;5176518;27;20071;-88
2021/06/16 01:51:01;;;;;;;7.07;1.77;;;16.90;72.50;;;;;;5177493;27;20050;-88
2021/06/16 01:53:28;;;;;;;5.70;1.63;;;16.90;72.80;;;;;;5177357;27;20446;-88
2021/06/16 01:55:54;;;;;;;8.05;2.03;;;16.90;73.00;;;;;;5176976;27;20039;-88
2021/06/16 01:58:21;;;;;;;5.72;1.90;;;16.80;73.10;;;;;;5177743;27;20059;-88
2021/06/16 02:00:50;;;;;;;6.15;1.98;;;16.80;73.50;;;;;;5177525;27;20076;-88
2021/06/16 02:03:16;;;;;;;6.82;1.98;;;16.80;73.90;;;;;;5176619;27;20526;-88
2021/06/16 02:05:42;;;;;;;7.45;2.20;;;16.70;73.60;;;;;;5177470;27;20125;-89
2021/06/16 02:08:13;;;;;;;8.88;1.90;;;16.70;73.70;;;;;;5177607;27;20053;-87
2021/06/16 02:10:44;;;;;;;6.28;1.90;;;16.70;73.80;;;;;;5176666;27;20049;-88
2021/06/16 02:13:10;;;;;;;7.57;1.80;;;16.60;73.80;;;;;;5177554;27;20053;-89
2021/06/16 02:15:52;;;;;;;8.85;2.10;;;16.60;74.00;;;;;;5176192;27;20075;-88
2021/06/16 02:18:21;;;;;;;5.97;2.13;;;16.60;74.20;;;;;;5156463;27;20054;-88
2021/06/16 02:20:48;;;;;;;8.48;2.10;;;16.60;74.40;;;;;;5155796;27;20047;-89
2021/06/16 02:23:13;;;;;;;5.65;2.00;;;16.50;74.50;;;;;;5155903;27;20095;-88
2021/06/16 02:25:39;;;;;;;7.32;2.05;;;16.50;74.30;;;;;;5155703;27;20054;-88
2021/06/16 02:28:05;;;;;;;7.07;1.77;;;16.50;74.30;;;;;;5155950;27;20047;-89
2021/06/16 02:30:31;;;;;;;5.93;1.92;;;16.40;74.20;;;;;;5155025;27;20046;-88
2021/06/16 02:32:57;;;;;;;7.30;2.03;;;16.40;74.30;;;;;;5172493;27;20050;-87
2021/06/16 02:35:22;;;;;;;7.13;1.98;;;16.30;74.40;;;;;;5176635;27;20045;-88
2021/06/16 02:37:53;;;;;;;6.90;1.90;;;16.30;74.60;;;;;;5175691;27;20042;-89
2021/06/16 02:40:19;;;;;;;6.35;1.98;;;16.30;74.50;;;;;;5176546;27;20126;-88
2021/06/16 02:42:48;;;;;;;7.85;2.13;;;16.30;74.60;;;;;;5176704;27;20038;-88
2021/06/16 02:45:16;;;;;;;6.72;1.80;;;16.20;74.40;;;;;;5176266;27;20054;-89
2021/06/16 02:47:46;;;;;;;6.63;1.77;;;16.20;74.10;;;;;;5176710;27;20051;-89
2021/06/16 02:50:13;;;;;;;5.85;1.80;;;16.20;74.40;;;;;;5176887;27;20050;-89
2021/06/16 02:52:42;;;;;;;9.65;2.25;;;16.20;74.50;;;;;;5160212;27;20121;-89
2021/06/16 02:55:10;;;;;;;7.20;1.90;;;16.10;74.60;;;;;;5155624;27;20074;-89
2021/06/16 02:57:39;;;;;;;5.25;1.80;;;16.00;74.30;;;;;;5154937;27;20091;-88
2021/06/16 03:00:07;;;;;;;8.73;2.20;;;16.10;74.50;;;;;;5155392;27;20047;-89
2021/06/16 03:02:34;;;;;;;6.28;2.00;;;16.00;74.60;;;;;;5155210;27;20054;-89
2021/06/16 03:05:01;;;;;;;6.82;2.20;;;16.00;74.60;;;;;;5155313;27;20050;-88
2021/06/16 03:07:29;;;;;;;9.10;2.15;;;15.90;74.70;;;;;;5154816;27;20050;-88
2021/06/16 03:09:57;;;;;;;7.53;2.00;;;15.90;75.00;;;;;;5155261;27;20047;-88
2021/06/16 03:12:23;;;;;;;8.27;2.15;;;15.90;75.10;;;;;;5154472;27;20428;-88
2021/06/16 03:14:50;;;;;;;8.57;2.15;;;15.90;75.20;;;;;;5155042;27;20417;-88
2021/06/16 03:17:18;;;;;;;6.25;2.20;;;15.80;75.40;;;;;;5155069;27;20510;-88
2021/06/16 03:19:45;;;;;;;6.25;2.00;;;15.80;75.70;;;;;;5153916;27;20118;-88
2021/06/16 03:22:12;;;;;;;7.50;2.42;;;15.70;75.70;;;;;;5155430;27;20046;-88
2021/06/16 03:24:39;;;;;;;8.50;2.33;;;15.70;75.20;;;;;;5155052;27;20042;-87
2021/06/16 03:27:05;;;;;;;7.65;2.30;;;15.70;75.60;;;;;;5154519;27;20050;-87
2021/06/16 03:29:33;;;;;;;6.68;2.17;;;15.70;76.60;;;;;;5155035;27;20045;-88
2021/06/16 03:32:01;;;;;;;5.75;2.30;;;15.60;75.60;;;;;;5156623;27;20058;-89
2021/06/16 03:34:28;;;;;;;7.63;2.20;;;15.60;75.80;;;;;;5153947;27;20042;-88
2021/06/16 03:36:55;;;;;;;6.45;1.80;;;15.60;75.90;;;;;;5154760;27;20043;-88
2021/06/16 03:39:22;;;;;;;5.90;2.03;;;15.50;75.80;;;;;;5154861;27;20042;-89
2021/06/16 03:41:48;;;;;;;8.50;2.33;;;15.50;75.60;;;;;;5154526;27;20138;-88
2021/06/16 03:44:15;;;;;;;5.97;2.05;;;15.50;75.70;;;;;;5155012;27;20050;-87
2021/06/16 03:46:42;;;;;;;6.40;2.10;;;15.40;75.70;;;;;;5154814;27;20455;-88
2021/06/16 03:49:14;;;;;;;6.65;2.17;;;15.40;75.80;;;;;;5154000;27;20050;-88
2021/06/16 03:51:40;;;;;;;8.82;2.40;;;15.40;75.90;;;;;;5167381;27;20074;-88
2021/06/16 03:54:11;;;;;;;7.28;2.17;;;15.40;75.90;;;;;;5175392;27;20050;-89
2021/06/16 03:56:41;;;;;;;7.63;2.20;;;15.40;76.00;;;;;;5165472;27;20054;-88
2021/06/16 03:59:08;;;;;;;7.60;2.00;;;15.30;76.30;;;;;;5154911;27;20047;-88
2021/06/16 04:01:36;;;;;;;7.82;2.30;;;15.30;76.20;;;;;;5164886;27;20194;-87
2021/06/16 04:04:09;;;;;;;7.82;2.38;;;15.30;76.30;;;;;;5175251;27;20408;-88
2021/06/16 04:06:43;;;;;;;7.50;2.20;;;15.20;76.20;;;;;;5175392;27;20042;-87
2021/06/16 04:09:11;;;;;;;6.20;2.25;;;15.20;76.00;;;;;;5175651;27;20045;-89
2021/06/16 04:11:37;;;;;;;7.50;2.22;;;15.20;76.20;;;;;;5159665;27;20054;-89
2021/06/16 04:14:03;;;;;;;5.68;1.98;;;15.20;76.30;;;;;;5154610;27;20047;-88
2021/06/16 04:16:29;;;;;;;6.00;2.05;;;15.20;76.00;;;;;;5153695;27;20064;-89
2021/06/16 04:18:55;;;;;;;6.15;2.08;;;15.20;75.90;;;;;;5154878;27;20050;-88
2021/06/16 04:21:21;;;;;;;6.72;2.15;;;15.10;76.10;;;;;;5154804;27;20054;-88
2021/06/16 04:23:48;;;;;;;8.50;2.60;;;15.10;76.30;;;;;;5153794;27;20047;-89
2021/06/16 04:26:18;;;;;;;8.10;2.45;;;15.10;76.40;;;;;;5154681;27;20038;-89
2021/06/16 04:28:44;;;;;;;7.25;2.20;;;15.10;76.60;;;;;;5154368;27;20129;-88
2021/06/16 04:31:11;;;;;;;7.10;2.30;;;15.10;76.70;;;;;;5167072;27;20081;-89
2021/06/16 04:33:37;;;;;;;7.22;1.98;;;15.00;76.80;;;;;;5174767;27;20485;-89
2021/06/16 04:36:05;;;;;;;6.53;2.38;;;15.00;76.50;;;;;;5174940;27;20172;-88
2021/06/16 04:38:31;;;;;;;8.10;2.50;;;15.00;76.70;;;;;;5175192;27;20042;-89
2021/06/16 04:40:57;;;;;;;7.20;2.50;;;15.00;76.70;;;;;;5175246;27;20050;-88
2021/06/16 04:43:23;;;;;;;6.38;2.10;;;15.00;76.70;;;;;;5174239;27;20161;-89
2021/06/16 04:45:49;;;;;;;6.38;2.35;;;15.00;76.50;;;;;;5174591;27;20043;-89
2021/06/16 04:48:15;;;;;;;5.90;2.25;;;15.00;76.50;;;;;;5175334;27;20192;-90
2021/06/16 04:50:41;;;;;;;6.18;2.38;;;15.00;76.50;;;;;;5174211;27;20438;-89
2021/06/16 04:53:06;;;;;;;5.55;2.10;;;15.00;76.40;;;;;;5175291;27;20041;-89
2021/06/16 04:55:32;;;;;;;6.60;2.75;;;15.00;76.40;;;;;;5174976;27;20042;-89
2021/06/16 04:57:58;;;;;;;8.05;2.33;;;15.00;76.30;;;;;;5174538;27;20409;-89
2021/06/16 05:00:24;;;;;;;7.70;2.30;;;15.00;76.50;;;;;;5173178;27;20046;-88
2021/06/16 05:02:54;;;;;;;6.22;2.50;;;15.00;76.70;;;;;;5177757;27;20039;-89
2021/06/16 05:05:21;;;;;;;7.97;2.35;;;14.90;76.30;;;;;;5178323;27;20054;-89
2021/06/16 05:07:47;;;;;;;8.48;2.42;;;15.00;76.80;;;;;;5178568;27;20073;-89
2021/06/16 05:10:13;;;;;;;7.30;2.60;;;15.00;76.70;;;;;;5171807;27;20107;-88
2021/06/16 05:12:39;;;;;;;6.72;2.15;;;15.00;76.80;;;;;;5168189;27;20048;-89
2021/06/16 05:15:06;;;;;;;8.88;2.40;;;15.00;76.40;;;;;;5166789;27;20375;-89
2021/06/16 05:17:31;;;;;;;7.05;2.50;;;15.00;76.20;;;;;;5168688;27;20042;-89
2021/06/16 05:19:57;;;;;;;7.57;2.58;;;14.90;76.30;;;;;;5168826;27;20042;-89
2021/06/16 05:22:25;;;;;;;7.45;2.50;;;15.00;76.70;;;;;;5162526;27;20046;-89
2021/06/16 05:24:51;;;;;;;8.43;2.58;;;15.00;75.60;;;;;;5167444;27;20050;-89
2021/06/16 05:27:17;;;;;;;7.22;2.70;;;15.00;76.20;;;;;;5156762;27;20126;-90
2021/06/16 05:29:44;;;;;;;7.68;2.42;;;15.00;76.40;;;;;;5165342;27;20070;-89
2021/06/16 05:32:10;;;;;;;9.00;2.83;;;15.00;76.90;;;;;;5177885;27;20042;-89
2021/06/16 05:34:37;;;;;;;6.60;2.60;;;15.00;77.40;;;;;;5177179;27;20054;-87
2021/06/16 05:37:04;;;;;;;9.52;2.95;;;15.10;77.50;;;;;;5178394;27;20442;-89
2021/06/16 05:39:31;;;;;;;8.63;2.88;;;15.10;77.60;;;;;;5178572;27;20430;-89
2021/06/16 05:41:57;;;;;;;6.65;2.60;;;15.10;77.20;;;;;;5177451;27;20046;-86
2021/06/16 05:44:23;;;;;;;9.50;2.75;;;15.10;77.30;;;;;;5177604;27;20061;-87
2021/06/16 05:46:49;;;;;;;9.30;3.30;;;15.20;77.20;;;;;;5177594;27;20133;-88
2021/06/16 05:49:14;;;;;;;8.15;2.47;;;15.20;77.40;;;;;;5175361;27;20374;-88
2021/06/16 05:51:40;;;;;;;8.77;2.40;;;15.20;77.30;;;;;;5160121;27;20042;-87
2021/06/16 05:54:10;;;;;;;10.30;3.75;;;15.20;77.40;;;;;;5163668;27;20042;-90
2021/06/16 05:56:40;;;;;;;8.43;2.90;;;15.30;78.40;;;;;;5177419;27;20487;-85
2021/06/16 05:59:06;;;;;;;10.75;3.08;;;15.30;78.00;;;;;;5172478;27;20038;-89
2021/06/16 06:01:32;;;;;;;10.05;3.20;;;15.30;78.40;;;;;;5152592;27;20137;-90
2021/06/16 06:03:58;;;;;;;8.75;2.88;;;15.40;78.80;;;;;;5163740;27;20054;-92
2021/06/16 06:06:24;;;;;;;5.90;2.33;;;15.40;78.10;;;;;;5174025;27;20047;-92
2021/06/16 06:08:50;;;;;;;9.15;3.20;;;15.50;77.70;;;;;;5173777;27;20042;-91
2021/06/16 06:11:15;;;;;;;8.15;2.67;;;15.50;78.30;;;;;;5177020;27;20500;-91
2021/06/16 06:13:41;;;;;;;9.38;3.00;;;15.60;77.80;;;;;;5156939;27;20047;-93
2021/06/16 06:16:07;;;;;;;9.48;2.67;;;15.60;77.80;;;;;;5165166;27;20065;-93
2021/06/16 06:18:33;;;;;;;11.13;3.00;;;15.70;77.50;;;;;;5163975;27;20058;-90
2021/06/16 06:20:59;;;;;;;10.20;3.30;;;15.70;78.20;;;;;;5172712;27;20074;-90
2021/06/16 06:23:24;;;;;;;9.32;3.20;;;15.80;78.80;;;;;;5174202;27;20043;-92
2021/06/16 06:25:51;;;;;;;10.45;3.63;;;15.80;78.70;;;;;;5156522;27;20466;-91
2021/06/16 06:28:25;;;;;;;11.52;3.42;;;15.90;79.10;;;;;;5157134;27;20090;-91
2021/06/16 06:30:50;;;;;;;8.07;3.15;;;16.00;79.20;;;;;;5156907;27;20111;-92
2021/06/16 06:33:16;;;;;;;7.78;2.85;;;16.20;78.60;;;;;;5156781;27;20047;-92
2021/06/16 06:35:42;;;;;;;6.85;2.55;;;16.30;77.70;;;;;;5159420;27;20121;-92
2021/06/16 06:38:08;;;;;;;7.47;2.85;;;16.40;77.60;;;;;;5177111;27;20050;-91
2021/06/16 06:40:34;;;;;;;9.57;3.10;;;16.40;77.90;;;;;;5162367;27;20455;-91
2021/06/16 06:43:00;;;;;;;8.25;2.50;;;16.60;78.30;;;;;;5156366;27;20049;-92
2021/06/16 06:45:26;;;;;;;7.47;2.60;;;16.70;78.10;;;;;;5163151;27;20678;-92
2021/06/16 06:47:52;;;;;;;9.75;3.08;;;16.80;77.00;;;;;;5168546;27;20042;-93
2021/06/16 06:50:18;;;;;;;11.55;3.40;;;16.90;77.60;;;;;;5176975;27;20046;-93
2021/06/16 06:52:45;;;;;;;10.45;3.15;;;17.00;77.70;;;;;;5166961;27;20039;-91
2021/06/16 06:55:12;;;;;;;8.43;3.20;;;17.10;77.60;;;;;;5162927;27;20516;-91
2021/06/16 06:57:38;;;;;;;8.73;3.53;;;17.30;77.50;;;;;;5166673;27;20046;-93
2021/06/16 07:00:08;;;;;;;10.52;3.40;;;17.40;77.60;;;;;;5160097;27;20046;-93
2021/06/16 07:02:34;;;;;;;10.30;3.25;;;17.50;77.40;;;;;;5168162;27;20098;-92
2021/06/16 07:04:59;;;;;;;8.38;3.38;;;17.60;77.40;;;;;;5176993;27;20076;-91
2021/06/16 07:07:25;;;;;;;12.18;3.65;;;17.80;77.50;;;;;;5164584;27;20497;-93
2021/06/16 07:09:51;;;;;;;10.68;3.50;;;17.90;77.60;;;;;;5174865;27;20413;-92
2021/06/16 07:12:17;;;;;;;7.30;2.45;;;18.00;77.00;;;;;;5176470;27;20069;-92
2021/06/16 07:14:45;;;;;;;10.68;3.50;;;18.10;76.20;;;;;;5163386;27;20085;-92
2021/06/16 07:17:11;;;;;;;8.95;3.10;;;18.30;76.40;;;;;;5158999;27;20050;-90
2021/06/16 07:19:36;;;;;;;10.90;3.08;;;18.40;76.00;;;;;;5173033;27;20478;-91
2021/06/16 07:22:03;;;;;;;11.15;3.40;;;18.50;75.70;;;;;;5155181;27;20066;-93
2021/06/16 07:24:29;;;;;;;8.40;2.80;;;18.60;75.50;;;;;;5164014;27;20039;-91
2021/06/16 07:26:56;;;;;;;11.43;3.03;;;18.70;75.00;;;;;;5170560;27;20125;-92
2021/06/16 07:29:22;;;;;;;6.82;2.42;;;18.90;75.00;;;;;;5160059;27;20043;-92
2021/06/16 07:32:08;;;;;;;10.23;2.90;;;19.00;74.50;;;;;;5168305;27;20054;-92
2021/06/16 07:34:33;;;;;;;9.38;2.55;;;19.10;74.20;;;;;;5167350;27;20046;-90
2021/06/16 07:36:59;;;;;;;8.70;3.03;;;19.30;74.00;;;;;;5176663;27;20451;-93
2021/06/16 07:39:25;;;;;;;13.52;3.05;;;19.40;73.80;;;;;;5173643;27;20046;-92
2021/06/16 07:41:51;;;;;;;9.95;3.03;;;19.50;73.70;;;;;;5161755;27;20485;-92
2021/06/16 07:44:17;;;;;;;10.73;3.13;;;19.60;73.50;;;;;;5166417;27;20053;-93
2021/06/16 07:46:43;;;;;;;7.88;2.47;;;19.70;72.90;;;;;;5168016;27;20486;-90
2021/06/16 07:49:09;;;;;;;11.63;2.88;;;19.90;72.70;;;;;;5155540;27;20054;-93
2021/06/16 07:51:34;;;;;;;9.02;2.90;;;20.00;72.50;;;;;;5172312;27;20046;-93
2021/06/16 07:54:00;;;;;;;11.00;3.10;;;20.10;72.80;;;;;;5153639;27;20055;-86
2021/06/16 07:56:26;;;;;;;14.52;2.85;;;20.20;72.90;;;;;;5155759;27;20405;-86
2021/06/16 07:58:51;;;;;;;9.70;2.95;;;20.30;72.20;;;;;;5163133;27;20492;-88
2021/06/16 08:01:18;;;;;;;9.15;2.65;;;20.40;72.00;;;;;;5152637;27;20045;-88
2021/06/16 08:03:44;;;;;;;6.78;2.35;;;20.50;71.80;;;;;;5158982;27;20058;-91
2021/06/16 08:06:09;;;;;;;8.52;2.25;;;20.60;71.40;;;;;;5152083;27;20039;-90
2021/06/16 08:08:35;;;;;;;13.85;2.65;;;20.80;71.20;;;;;;5154432;27;20047;-91
2021/06/16 08:11:02;;;;;;;8.20;2.50;;;20.80;69.70;;;;;;5152139;27;20159;-88
2021/06/16 08:13:31;;;;;;;9.23;2.40;;;21.00;69.30;;;;;;5168776;27;20045;-92
2021/06/16 08:15:57;;;;;;;9.95;2.60;;;21.10;69.70;;;;;;5153993;27;20062;-90
2021/06/16 08:18:22;;;;;;;7.57;2.40;;;21.20;70.20;;;;;;5154163;27;20043;-91
2021/06/16 08:20:48;;;;;;;8.82;2.33;;;21.30;69.80;;;;;;5168801;27;20049;-91
2021/06/16 08:23:14;;;;;;;7.18;2.22;;;21.40;69.20;;;;;;5157439;27;20417;-93
2021/06/16 08:25:40;;;;;;;10.10;2.60;;;21.50;69.00;;;;;;5170263;27;20046;-89
2021/06/16 08:28:06;;;;;;;8.52;2.10;;;21.60;68.30;;;;;;5154507;27;20406;-89
2021/06/16 08:30:31;;;;;;;7.93;2.65;;;21.70;67.80;;;;;;5168113;27;20043;-89
2021/06/16 08:32:57;;;;;;;7.93;2.50;;;21.80;68.00;;;;;;5174769;27;20042;-92
2021/06/16 08:35:23;;;;;;;6.82;1.98;;;21.90;67.10;;;;;;5157088;27;20042;-89
2021/06/16 08:37:49;;;;;;;7.82;2.40;;;21.90;67.70;;;;;;5174503;27;20042;-90
2021/06/16 08:40:15;;;;;;;7.22;2.47;;;22.00;67.30;;;;;;5167541;27;20106;-90
2021/06/16 08:42:43;;;;;;;7.47;2.80;;;22.10;67.10;;;;;;5177315;27;20068;-90
2021/06/16 08:45:09;;;;;;;9.95;2.58;;;22.10;66.50;;;;;;5165623;27;20085;-91
2021/06/16 08:47:35;;;;;;;8.38;2.70;;;22.30;66.00;;;;;;5157489;27;20123;-87
2021/06/16 08:50:07;;;;;;;8.10;2.47;;;22.30;65.00;;;;;;5164601;27;20057;-91
2021/06/16 08:52:33;;;;;;;9.65;2.60;;;22.40;65.40;;;;;;5175033;27;20456;-89
2021/06/16 08:55:12;;;;;;;7.40;2.65;;;22.50;65.80;;;;;;5161532;27;20134;-88
2021/06/16 08:57:39;;;;;;;8.70;2.63;;;22.60;65.90;;;;;;5170431;27;20057;-85
2021/06/16 09:00:06;;;;;;;11.50;2.83;;;22.70;64.20;;;;;;5165850;27;20047;-88
2021/06/16 09:02:31;;;;;;;8.20;2.60;;;22.80;62.60;;;;;;5169318;27;20048;-90
2021/06/16 09:04:57;;;;;;;6.85;2.30;;;22.80;62.80;;;;;;5173121;27;20129;-86
2021/06/16 09:07:26;;;;;;;8.13;2.50;;;22.90;61.60;;;;;;5168954;27;20076;-89
2021/06/16 09:10:12;;;;;;;8.55;2.40;;;23.00;61.10;;;;;;5164906;27;20494;-85
2021/06/16 09:12:45;;;;;;;8.48;2.15;;;23.10;61.00;;;;;;5158758;27;20067;-86
2021/06/16 09:15:16;;;;;;;9.68;2.22;;;23.20;62.30;;;;;;5174423;27;20110;-85
2021/06/16 09:18:01;;;;;;;6.57;2.10;;;23.30;60.90;;;;;;5172110;27;20046;-85
2021/06/16 09:20:29;;;;;;;6.72;1.77;;;23.40;62.30;;;;;;5165139;27;20424;-84
2021/06/16 09:23:28;;;;;;;6.38;1.80;;;23.40;61.00;;;;;;5159493;27;20043;-83
2021/06/16 09:26:10;;;;;;;7.75;1.90;;;23.50;58.90;;;;;;5127606;27;20540;-86
2021/06/16 09:28:41;;;;;;;7.32;1.60;;;23.60;57.50;;;;;;5164593;27;20494;-84
2021/06/16 09:31:09;;;;;;;4.93;1.55;;;23.70;56.80;;;;;;5161007;27;20049;-85
2021/06/16 09:33:35;;;;;;;5.90;1.67;;;23.80;57.10;;;;;;5158446;27;20035;-84
2021/06/16 09:36:01;;;;;;;5.22;1.50;;;23.90;58.80;;;;;;5168626;27;20042;-83
2021/06/16 09:38:31;;;;;;;4.65;1.50;;;24.00;58.10;;;;;;5155243;27;20042;-84
2021/06/16 09:40:59;;;;;;;4.40;1.40;;;24.10;59.90;;;;;;5156947;27;20141;-84
2021/06/16 09:43:27;;;;;;;8.32;1.80;;;24.20;59.20;;;;;;5155976;27;20039;-84
2021/06/16 09:45:58;;;;;;;4.85;1.50;;;24.20;58.90;;;;;;5165483;27;20046;-83
2021/06/16 09:48:33;;;;;;;6.00;1.50;;;24.30;57.60;;;;;;5165451;27;20056;-84
2021/06/16 09:51:09;;;;;;;6.50;1.70;;;24.40;56.30;;;;;;5162236;27;20177;-85
2021/06/16 09:53:55;;;;;;;7.38;1.60;;;24.50;57.00;;;;;;5163071;27;20538;-83
2021/06/16 09:56:21;;;;;;;5.82;1.23;;;24.60;56.90;;;;;;5166283;27;20119;-83
2021/06/16 09:58:46;;;;;;;4.40;1.40;;;24.70;57.10;;;;;;5166224;27;20062;-83
2021/06/16 10:01:12;;;;;;;6.88;1.30;;;24.80;55.70;;;;;;5157474;27;20070;-85
2021/06/16 10:03:40;;;;;;;5.63;1.20;;;24.80;54.80;;;;;;5161098;27;20409;-86
2021/06/16 10:06:11;;;;;;;6.45;1.48;;;24.90;53.10;;;;;;5168156;27;20431;-83
2021/06/16 10:08:42;;;;;;;5.68;1.60;;;25.00;53.00;;;;;;5158762;27;20512;-83
2021/06/16 10:11:13;;;;;;;6.85;1.48;;;25.10;55.10;;;;;;5162901;27;20444;-87
2021/06/16 10:13:39;;;;;;;5.43;1.60;;;25.10;54.50;;;;;;5151083;27;20126;-87
2021/06/16 10:16:06;;;;;;;4.28;1.20;;;25.10;53.30;;;;;;5163361;27;20057;-85
2021/06/16 10:18:39;;;;;;;4.13;1.20;;;25.20;54.10;;;;;;5175703;27;20046;-86
2021/06/16 10:21:07;;;;;;;10.05;1.70;;;25.30;54.70;;;;;;5169636;27;20478;-85
2021/06/16 10:23:32;;;;;;;5.43;1.35;;;25.30;55.40;;;;;;5165691;27;20508;-85
2021/06/16 10:26:05;;;;;;;4.65;1.20;;;25.40;52.70;;;;;;5169964;27;20042;-87
2021/06/16 10:28:37;;;;;;;2.72;1.00;;;25.50;49.80;;;;;;5163218;27;20072;-87
2021/06/16 10:31:06;;;;;;;7.35;1.30;;;25.50;53.00;;;;;;5171145;27;20058;-84
2021/06/16 10:33:41;;;;;;;5.00;1.55;;;25.60;50.20;;;;;;5157968;27;20038;-84
2021/06/16 10:36:11;;;;;;;5.35;1.42;;;25.60;53.00;;;;;;5166602;27;20521;-83
2021/06/16 10:39:01;;;;;;;5.28;1.55;;;25.70;53.10;;;;;;5170444;27;20054;-83
2021/06/16 10:41:44;;;;;;;5.55;1.55;;;25.80;52.00;;;;;;5150866;27;20039;-85
2021/06/16 10:44:14;;;;;;;5.20;1.40;;;25.90;51.20;;;;;;5168698;27;20066;-85
2021/06/16 10:47:00;;;;;;;3.33;1.20;;;26.00;52.00;;;;;;5167662;27;20393;-85
2021/06/16 10:49:41;;;;;;;5.63;1.50;;;26.00;50.40;;;;;;5164699;27;20061;-85
2021/06/16 10:52:09;;;;;;;4.47;1.42;;;26.10;47.50;;;;;;5163580;27;20076;-84
2021/06/16 10:54:36;;;;;;;4.38;1.25;;;26.20;49.20;;;;;;5159582;27;20129;-85
2021/06/16 10:57:05;;;;;;;3.70;1.23;;;26.20;52.10;;;;;;5162299;27;20112;-85
2021/06/16 10:59:47;;;;;;;5.30;1.38;;;26.30;52.70;;;;;;5168354;27;20054;-85
2021/06/16 11:02:13;;;;;;;4.90;1.23;;;26.40;52.30;;;;;;5162509;27;20042;-86
2021/06/16 11:04:41;;;;;;;6.45;1.52;;;26.40;49.80;;;;;;5152613;27;20051;-86
2021/06/16 11:07:26;;;;;;;4.82;1.15;;;26.50;51.70;;;;;;5161357;27;20046;-86
2021/06/16 11:09:57;;;;;;;6.95;1.55;;;26.60;54.70;;;;;;5169601;27;20098;-84
2021/06/16 11:12:37;;;;;;;4.78;1.27;;;26.60;51.50;;;;;;5167224;27;20042;-86
2021/06/16 11:15:06;;;;;;;5.00;1.52;;;26.70;54.20;;;;;;5157042;27;20042;-86
2021/06/16 11:17:32;;;;;;;5.57;1.52;;;26.70;53.30;;;;;;5161893;27;20050;-86
2021/06/16 11:20:04;;;;;;;4.13;1.27;;;26.80;52.60;;;;;;5157309;27;20252;-86
2021/06/16 11:22:31;;;;;;;4.00;1.30;;;26.90;53.10;;;;;;5167319;27;20094;-90
2021/06/16 11:25:00;;;;;;;6.13;1.35;;;26.90;53.00;;;;;;5173771;27;20070;-88
2021/06/16 11:27:53;;;;;;;3.45;1.30;;;27.10;53.50;;;;;;5155282;27;20069;-87
2021/06/16 11:30:41;;;;;;;6.57;1.60;;;27.10;56.20;;;;;;5164112;27;20144;-88
2021/06/16 11:33:16;;;;;;;6.32;1.45;;;27.20;51.60;;;;;;5153706;27;20473;-89
2021/06/16 11:35:46;;;;;;;5.88;1.30;;;27.20;49.10;;;;;;5161243;27;20168;-90
2021/06/16 11:38:32;;;;;;;5.57;1.50;;;27.30;49.30;;;;;;5168226;27;20038;-89
2021/06/16 11:41:01;;;;;;;8.35;1.75;;;27.30;48.50;;;;;;5169091;27;20050;-88
2021/06/16 11:43:51;;;;;;;4.30;1.30;;;27.40;49.70;;;;;;5170731;27;20057;-92
2021/06/16 11:46:27;;;;;;;7.18;1.60;;;27.40;51.80;;;;;;5154079;27;20048;-90
2021/06/16 11:49:20;;;;;;;6.68;1.30;;;27.50;49.60;;;;;;5169206;27;20408;-87
2021/06/16 11:51:55;;;;;;;7.88;1.60;;;27.50;51.60;;;;;;5160602;27;20053;-90
2021/06/16 11:54:33;;;;;;;4.55;1.30;;;27.60;54.20;;;;;;5164228;27;20049;-89
2021/06/16 11:56:58;;;;;;;5.30;1.40;;;27.70;53.50;;;;;;5164515;27;20061;-89
2021/06/16 11:59:39;;;;;;;7.45;1.20;;;27.80;54.90;;;;;;5164667;27;20470;-88
2021/06/16 12:02:19;;;;;;;4.75;1.42;;;27.80;52.10;;;;;;5155813;27;20049;-87
2021/06/16 12:05:06;;;;;;;4.32;1.30;;;27.90;52.20;;;;;;5162176;27;20082;-87
2021/06/16 12:07:48;;;;;;;4.20;1.13;;;28.00;55.20;;;;;;5161186;27;20504;-87
2021/06/16 12:10:25;;;;;;;5.50;1.30;;;28.10;55.50;;;;;;5165160;27;20047;-86
2021/06/16 12:12:51;;;;;;;4.65;1.10;;;28.10;55.70;;;;;;5173158;27;20050;-88
2021/06/16 12:15:27;;;;;;;5.05;1.30;;;28.20;56.10;;;;;;5171012;27;20144;-89
2021/06/16 12:18:05;;;;;;;6.25;1.38;;;28.30;53.80;;;;;;5169447;27;20046;-89
2021/06/16 12:20:45;;;;;;;5.55;1.40;;;28.40;52.60;;;;;;5163220;27;20054;-88
2021/06/16 12:23:24;;;;;;;5.35;1.55;;;28.40;51.60;;;;;;5172797;27;20102;-88
2021/06/16 12:26:07;;;;;;;4.22;1.40;;;28.50;49.40;;;;;;5162662;27;20038;-87
2021/06/16 12:28:35;;;;;;;5.30;1.40;;;28.50;54.10;;;;;;5172720;27;20046;-89
2021/06/16 12:31:02;;;;;;;6.95;2.15;;;28.60;54.20;;;;;;5174676;27;20085;-89
2021/06/16 12:33:48;;;;;;;7.00;1.67;;;28.70;50.50;;;;;;5164267;27;20046;-88
2021/06/16 12:36:22;;;;;;;7.88;1.63;;;28.70;51.50;;;;;;5167046;27;20053;-88
2021/06/16 12:38:54;;;;;;;5.72;1.48;;;28.80;50.60;;;;;;5178796;27;20049;-89
2021/06/16 12:41:28;;;;;;;9.32;1.70;;;28.80;51.40;;;;;;5161394;27;20047;-87
2021/06/16 12:44:24;;;;;;;5.03;1.50;;;28.80;50.40;;;;;;5171726;27;20050;-89
2021/06/16 12:47:11;;;;;;;5.05;1.50;;;28.80;52.80;;;;;;5165668;27;20056;-87
2021/06/16 12:49:57;;;;;;;3.75;1.55;;;28.90;56.50;;;;;;5167603;27;20058;-86
2021/06/16 12:52:32;;;;;;;6.40;1.38;;;29.00;57.40;;;;;;5160814;27;20051;-87
2021/06/16 12:55:15;;;;;;;7.25;1.70;;;29.10;56.90;;;;;;5168700;27;20046;-87
2021/06/16 12:57:40;;;;;;;;;;;29.20;53.50;;;;;;5167702;27;20054;-87